sensor_id;sensor_type;location;lat;lon;timestamp;temperature;humidity
573;DHT22;271;51.114;13.780;2022-08-21T00:01:27;18.70;47.10
573;DHT22;271;51.114;13.780;2022-08-21T00:03:55;18.60;47.10
573;DHT22;271;51.114;13.780;2022-08-21T00:06:23;18.70;49.50
573;DHT22;271;51.114;13.780;2022-08-21T00:08:50;18.70;48.60
573;DHT22;271;51.114;13.780;2022-08-21T00:11:17;18.60;50.00
573;DHT22;271;51.114;13.780;2022-08-21T00:13:46;18.70;51.50
573;DHT22;271;51.114;13.780;2022-08-21T00:16:12;18.70;48.00
573;DHT22;271;51.114;13.780;2022-08-21T00:18:39;18.70;48.30
573;DHT22;271;51.114;13.780;2022-08-21T00:21:06;18.70;50.30
573;DHT22;271;51.114;13.780;2022-08-21T00:23:34;18.70;49.00
573;DHT22;271;51.114;13.780;2022-08-21T00:26:01;18.70;48.00
573;DHT22;271;51.114;13.780;2022-08-21T00:28:28;18.70;48.50
573;DHT22;271;51.114;13.780;2022-08-21T00:30:57;18.70;48.60
573;DHT22;271;51.114;13.780;2022-08-21T00:33:24;18.70;48.30
573;DHT22;271;51.114;13.780;2022-08-21T00:35:51;18.70;47.40
573;DHT22;271;51.114;13.780;2022-08-21T00:38:18;18.70;48.50
573;DHT22;271;51.114;13.780;2022-08-21T00:40:48;18.70;51.50
573;DHT22;271;51.114;13.780;2022-08-21T00:43:18;18.70;50.90
573;DHT22;271;51.114;13.780;2022-08-21T00:45:45;18.70;51.70
573;DHT22;271;51.114;13.780;2022-08-21T00:48:13;18.70;51.40
573;DHT22;271;51.114;13.780;2022-08-21T00:50:46;18.70;53.10
573;DHT22;271;51.114;13.780;2022-08-21T00:53:15;18.70;54.00
573;DHT22;271;51.114;13.780;2022-08-21T00:55:42;18.80;52.60
573;DHT22;271;51.114;13.780;2022-08-21T00:58:11;18.70;50.00
573;DHT22;271;51.114;13.780;2022-08-21T01:00:41;18.70;52.50
573;DHT22;271;51.114;13.780;2022-08-21T01:03:10;18.80;52.30
573;DHT22;271;51.114;13.780;2022-08-21T01:05:40;18.70;50.80
573;DHT22;271;51.114;13.780;2022-08-21T01:08:07;18.60;51.20
573;DHT22;271;51.114;13.780;2022-08-21T01:10:35;18.60;51.50
573;DHT22;271;51.114;13.780;2022-08-21T01:13:03;18.60;52.10
573;DHT22;271;51.114;13.780;2022-08-21T01:15:35;18.60;52.50
573;DHT22;271;51.114;13.780;2022-08-21T01:18:03;18.50;53.80
573;DHT22;271;51.114;13.780;2022-08-21T01:20:31;18.50;52.40
573;DHT22;271;51.114;13.780;2022-08-21T01:22:59;18.40;51.10
573;DHT22;271;51.114;13.780;2022-08-21T01:25:26;18.30;43.30
573;DHT22;271;51.114;13.780;2022-08-21T01:27:53;18.30;43.90
573;DHT22;271;51.114;13.780;2022-08-21T01:30:22;18.20;43.00
573;DHT22;271;51.114;13.780;2022-08-21T01:32:50;18.20;42.10
573;DHT22;271;51.114;13.780;2022-08-21T01:35:18;18.10;38.60
573;DHT22;271;51.114;13.780;2022-08-21T01:37:46;18.10;38.20
573;DHT22;271;51.114;13.780;2022-08-21T01:40:15;18.00;36.10
573;DHT22;271;51.114;13.780;2022-08-21T01:42:43;18.00;37.50
573;DHT22;271;51.114;13.780;2022-08-21T01:45:10;18.00;38.70
573;DHT22;271;51.114;13.780;2022-08-21T01:47:38;18.00;39.60
573;DHT22;271;51.114;13.780;2022-08-21T01:50:07;18.00;38.00
573;DHT22;271;51.114;13.780;2022-08-21T01:52:35;18.10;38.20
573;DHT22;271;51.114;13.780;2022-08-21T01:55:03;18.10;35.90
573;DHT22;271;51.114;13.780;2022-08-21T01:57:31;18.10;35.20
573;DHT22;271;51.114;13.780;2022-08-21T01:59:59;18.00;34.30
573;DHT22;271;51.114;13.780;2022-08-21T02:02:26;18.00;33.70
573;DHT22;271;51.114;13.780;2022-08-21T02:04:53;18.00;33.80
573;DHT22;271;51.114;13.780;2022-08-21T02:07:20;18.10;37.50
573;DHT22;271;51.114;13.780;2022-08-21T02:09:47;18.00;37.00
573;DHT22;271;51.114;13.780;2022-08-21T02:12:14;18.10;37.70
573;DHT22;271;51.114;13.780;2022-08-21T02:14:42;18.00;37.90
573;DHT22;271;51.114;13.780;2022-08-21T02:17:09;18.00;36.70
573;DHT22;271;51.114;13.780;2022-08-21T02:19:37;18.10;38.70
573;DHT22;271;51.114;13.780;2022-08-21T02:22:04;18.10;37.00
573;DHT22;271;51.114;13.780;2022-08-21T02:24:30;18.10;37.10
573;DHT22;271;51.114;13.780;2022-08-21T02:26:57;18.10;37.10
573;DHT22;271;51.114;13.780;2022-08-21T02:29:24;18.00;34.30
573;DHT22;271;51.114;13.780;2022-08-21T02:31:52;18.10;36.40
573;DHT22;271;51.114;13.780;2022-08-21T02:34:19;18.00;35.00
573;DHT22;271;51.114;13.780;2022-08-21T02:36:46;18.10;33.60
573;DHT22;271;51.114;13.780;2022-08-21T02:39:13;18.00;34.10
573;DHT22;271;51.114;13.780;2022-08-21T02:41:40;18.10;36.60
573;DHT22;271;51.114;13.780;2022-08-21T02:44:07;18.00;34.60
573;DHT22;271;51.114;13.780;2022-08-21T02:46:33;18.00;38.50
573;DHT22;271;51.114;13.780;2022-08-21T02:49:02;18.00;39.10
573;DHT22;271;51.114;13.780;2022-08-21T02:51:29;18.00;36.50
573;DHT22;271;51.114;13.780;2022-08-21T02:53:56;18.00;36.80
573;DHT22;271;51.114;13.780;2022-08-21T02:56:23;18.00;34.90
573;DHT22;271;51.114;13.780;2022-08-21T02:58:51;18.00;35.80
573;DHT22;271;51.114;13.780;2022-08-21T03:01:18;17.90;37.50
573;DHT22;271;51.114;13.780;2022-08-21T03:03:47;17.90;37.00
573;DHT22;271;51.114;13.780;2022-08-21T03:06:20;18.00;39.00
573;DHT22;271;51.114;13.780;2022-08-21T03:08:47;18.00;36.20
573;DHT22;271;51.114;13.780;2022-08-21T03:11:15;17.90;34.30
573;DHT22;271;51.114;13.780;2022-08-21T03:13:41;17.90;34.40
573;DHT22;271;51.114;13.780;2022-08-21T03:16:09;17.90;36.60
573;DHT22;271;51.114;13.780;2022-08-21T03:18:36;17.90;36.80
573;DHT22;271;51.114;13.780;2022-08-21T03:21:04;17.90;38.70
573;DHT22;271;51.114;13.780;2022-08-21T03:23:32;17.90;38.70
573;DHT22;271;51.114;13.780;2022-08-21T03:25:59;18.00;38.90
573;DHT22;271;51.114;13.780;2022-08-21T03:28:27;18.00;37.50
573;DHT22;271;51.114;13.780;2022-08-21T03:30:54;18.00;37.70
573;DHT22;271;51.114;13.780;2022-08-21T03:33:21;18.00;40.80
573;DHT22;271;51.114;13.780;2022-08-21T03:35:52;18.00;44.20
573;DHT22;271;51.114;13.780;2022-08-21T03:38:20;18.00;42.90
573;DHT22;271;51.114;13.780;2022-08-21T03:40:48;18.00;44.30
573;DHT22;271;51.114;13.780;2022-08-21T03:43:15;17.90;42.70
573;DHT22;271;51.114;13.780;2022-08-21T03:45:42;17.90;46.50
573;DHT22;271;51.114;13.780;2022-08-21T03:48:09;17.80;48.40
573;DHT22;271;51.114;13.780;2022-08-21T03:50:40;17.90;49.20
573;DHT22;271;51.114;13.780;2022-08-21T03:53:08;17.80;48.10
573;DHT22;271;51.114;13.780;2022-08-21T03:55:35;17.80;47.30
573;DHT22;271;51.114;13.780;2022-08-21T03:58:03;17.70;49.10
573;DHT22;271;51.114;13.780;2022-08-21T04:00:31;17.70;52.40
573;DHT22;271;51.114;13.780;2022-08-21T04:02:58;17.60;56.20
573;DHT22;271;51.114;13.780;2022-08-21T04:05:25;17.70;58.60
573;DHT22;271;51.114;13.780;2022-08-21T04:07:57;17.70;58.00
573;DHT22;271;51.114;13.780;2022-08-21T04:10:25;17.80;57.30
573;DHT22;271;51.114;13.780;2022-08-21T04:12:52;17.70;55.60
573;DHT22;271;51.114;13.780;2022-08-21T04:15:21;17.70;56.90
573;DHT22;271;51.114;13.780;2022-08-21T04:17:49;17.60;59.50
573;DHT22;271;51.114;13.780;2022-08-21T04:20:16;17.60;62.10
573;DHT22;271;51.114;13.780;2022-08-21T04:22:43;17.60;61.00
573;DHT22;271;51.114;13.780;2022-08-21T04:25:11;17.60;60.80
573;DHT22;271;51.114;13.780;2022-08-21T04:27:38;17.70;61.20
573;DHT22;271;51.114;13.780;2022-08-21T04:30:07;17.70;60.90
573;DHT22;271;51.114;13.780;2022-08-21T04:32:36;17.70;62.30
573;DHT22;271;51.114;13.780;2022-08-21T04:35:05;17.70;61.30
573;DHT22;271;51.114;13.780;2022-08-21T04:37:32;17.60;61.90
573;DHT22;271;51.114;13.780;2022-08-21T04:39:59;17.70;62.10
573;DHT22;271;51.114;13.780;2022-08-21T04:42:27;17.70;61.60
573;DHT22;271;51.114;13.780;2022-08-21T04:44:55;17.70;64.50
573;DHT22;271;51.114;13.780;2022-08-21T04:47:23;17.70;64.40
573;DHT22;271;51.114;13.780;2022-08-21T04:49:51;17.80;67.10
573;DHT22;271;51.114;13.780;2022-08-21T04:52:21;17.80;66.20
573;DHT22;271;51.114;13.780;2022-08-21T04:54:49;17.70;63.90
573;DHT22;271;51.114;13.780;2022-08-21T04:57:19;17.70;65.60
573;DHT22;271;51.114;13.780;2022-08-21T04:59:48;17.70;66.10
573;DHT22;271;51.114;13.780;2022-08-21T05:02:15;17.70;65.30
573;DHT22;271;51.114;13.780;2022-08-21T05:04:45;17.70;65.80
573;DHT22;271;51.114;13.780;2022-08-21T05:07:17;17.70;67.60
573;DHT22;271;51.114;13.780;2022-08-21T05:09:45;17.80;69.00
573;DHT22;271;51.114;13.780;2022-08-21T05:12:12;17.80;68.60
573;DHT22;271;51.114;13.780;2022-08-21T05:14:39;17.80;68.90
573;DHT22;271;51.114;13.780;2022-08-21T05:17:07;17.80;69.70
573;DHT22;271;51.114;13.780;2022-08-21T05:19:35;17.90;70.00
573;DHT22;271;51.114;13.780;2022-08-21T05:22:02;17.90;70.60
573;DHT22;271;51.114;13.780;2022-08-21T05:24:30;17.90;71.00
573;DHT22;271;51.114;13.780;2022-08-21T05:26:57;17.90;70.50
573;DHT22;271;51.114;13.780;2022-08-21T05:29:24;17.90;70.00
573;DHT22;271;51.114;13.780;2022-08-21T05:31:51;18.00;71.60
573;DHT22;271;51.114;13.780;2022-08-21T05:34:21;18.10;70.60
573;DHT22;271;51.114;13.780;2022-08-21T05:36:49;18.10;69.80
573;DHT22;271;51.114;13.780;2022-08-21T05:39:16;18.20;68.40
573;DHT22;271;51.114;13.780;2022-08-21T05:41:44;18.10;67.00
573;DHT22;271;51.114;13.780;2022-08-21T05:44:11;18.20;68.10
573;DHT22;271;51.114;13.780;2022-08-21T05:46:38;18.20;68.70
573;DHT22;271;51.114;13.780;2022-08-21T05:49:05;18.20;69.80
573;DHT22;271;51.114;13.780;2022-08-21T05:51:32;18.20;69.50
573;DHT22;271;51.114;13.780;2022-08-21T05:53:58;18.30;69.30
573;DHT22;271;51.114;13.780;2022-08-21T05:56:25;18.30;70.80
573;DHT22;271;51.114;13.780;2022-08-21T05:58:53;18.40;71.90
573;DHT22;271;51.114;13.780;2022-08-21T06:01:21;18.50;71.90
573;DHT22;271;51.114;13.780;2022-08-21T06:03:48;18.50;70.60
573;DHT22;271;51.114;13.780;2022-08-21T06:06:15;18.50;70.30
573;DHT22;271;51.114;13.780;2022-08-21T06:08:42;18.60;70.70
573;DHT22;271;51.114;13.780;2022-08-21T06:11:09;18.60;71.20
573;DHT22;271;51.114;13.780;2022-08-21T06:13:37;18.60;69.50
573;DHT22;271;51.114;13.780;2022-08-21T06:16:08;18.70;69.60
573;DHT22;271;51.114;13.780;2022-08-21T06:18:36;18.60;68.00
573;DHT22;271;51.114;13.780;2022-08-21T06:21:03;18.60;68.50
573;DHT22;271;51.114;13.780;2022-08-21T06:23:30;18.70;68.00
573;DHT22;271;51.114;13.780;2022-08-21T06:25:57;18.70;65.20
573;DHT22;271;51.114;13.780;2022-08-21T06:28:24;18.60;61.80
573;DHT22;271;51.114;13.780;2022-08-21T06:30:51;18.60;62.30
573;DHT22;271;51.114;13.780;2022-08-21T06:33:20;18.70;63.20
573;DHT22;271;51.114;13.780;2022-08-21T06:35:46;18.70;64.30
573;DHT22;271;51.114;13.780;2022-08-21T06:38:14;18.70;61.40
573;DHT22;271;51.114;13.780;2022-08-21T06:40:40;18.80;62.00
573;DHT22;271;51.114;13.780;2022-08-21T06:43:09;18.90;63.60
573;DHT22;271;51.114;13.780;2022-08-21T06:45:37;18.90;61.80
573;DHT22;271;51.114;13.780;2022-08-21T06:48:04;18.90;59.80
573;DHT22;271;51.114;13.780;2022-08-21T06:50:34;19.00;60.70
573;DHT22;271;51.114;13.780;2022-08-21T06:53:02;19.00;56.80
573;DHT22;271;51.114;13.780;2022-08-21T06:55:29;19.10;53.30
573;DHT22;271;51.114;13.780;2022-08-21T06:57:56;19.10;53.30
573;DHT22;271;51.114;13.780;2022-08-21T07:00:23;19.10;49.40
573;DHT22;271;51.114;13.780;2022-08-21T07:02:50;19.10;45.70
573;DHT22;271;51.114;13.780;2022-08-21T07:05:17;19.00;39.10
573;DHT22;271;51.114;13.780;2022-08-21T07:07:45;19.00;39.60
573;DHT22;271;51.114;13.780;2022-08-21T07:10:12;19.10;36.70
573;DHT22;271;51.114;13.780;2022-08-21T07:12:39;19.10;35.50
573;DHT22;271;51.114;13.780;2022-08-21T07:15:07;19.10;30.50
573;DHT22;271;51.114;13.780;2022-08-21T07:17:34;19.00;30.80
573;DHT22;271;51.114;13.780;2022-08-21T07:20:02;19.00;34.70
573;DHT22;271;51.114;13.780;2022-08-21T07:22:29;19.10;38.20
573;DHT22;271;51.114;13.780;2022-08-21T07:24:58;19.20;30.90
573;DHT22;271;51.114;13.780;2022-08-21T07:27:26;19.20;32.60
573;DHT22;271;51.114;13.780;2022-08-21T07:29:53;19.30;30.90
573;DHT22;271;51.114;13.780;2022-08-21T07:32:20;19.30;30.80
573;DHT22;271;51.114;13.780;2022-08-21T07:34:47;19.40;27.90
573;DHT22;271;51.114;13.780;2022-08-21T07:37:14;19.40;28.60
573;DHT22;271;51.114;13.780;2022-08-21T07:39:40;19.40;27.40
573;DHT22;271;51.114;13.780;2022-08-21T07:42:09;19.40;25.50
573;DHT22;271;51.114;13.780;2022-08-21T07:44:36;19.40;26.30
573;DHT22;271;51.114;13.780;2022-08-21T07:47:02;19.40;25.20
573;DHT22;271;51.114;13.780;2022-08-21T07:49:30;19.50;23.50
573;DHT22;271;51.114;13.780;2022-08-21T07:51:58;19.50;22.10
573;DHT22;271;51.114;13.780;2022-08-21T07:54:25;19.40;17.10
573;DHT22;271;51.114;13.780;2022-08-21T07:56:52;19.40;17.80
573;DHT22;271;51.114;13.780;2022-08-21T07:59:20;19.50;21.50
573;DHT22;271;51.114;13.780;2022-08-21T08:01:47;19.60;24.10
573;DHT22;271;51.114;13.780;2022-08-21T08:04:13;19.70;21.20
573;DHT22;271;51.114;13.780;2022-08-21T08:06:41;19.60;10.40
573;DHT22;271;51.114;13.780;2022-08-21T08:09:08;19.70;7.40
573;DHT22;271;51.114;13.780;2022-08-21T08:11:36;19.70;2.30
573;DHT22;271;51.114;13.780;2022-08-21T08:14:03;19.80;1.00
573;DHT22;271;51.114;13.780;2022-08-21T08:16:32;19.70;1.00
573;DHT22;271;51.114;13.780;2022-08-21T08:18:58;19.70;2.80
573;DHT22;271;51.114;13.780;2022-08-21T08:21:25;19.80;2.80
573;DHT22;271;51.114;13.780;2022-08-21T08:23:53;19.90;1.00
573;DHT22;271;51.114;13.780;2022-08-21T08:26:19;19.90;1.00
573;DHT22;271;51.114;13.780;2022-08-21T08:28:46;19.80;1.00
573;DHT22;271;51.114;13.780;2022-08-21T08:31:13;19.80;1.00
573;DHT22;271;51.114;13.780;2022-08-21T08:33:42;19.80;1.00
573;DHT22;271;51.114;13.780;2022-08-21T08:36:13;19.90;1.10
573;DHT22;271;51.114;13.780;2022-08-21T08:38:40;20.00;1.00
573;DHT22;271;51.114;13.780;2022-08-21T08:41:11;20.10;1.00
573;DHT22;271;51.114;13.780;2022-08-21T08:43:40;20.20;1.00
573;DHT22;271;51.114;13.780;2022-08-21T08:46:12;20.20;1.00
573;DHT22;271;51.114;13.780;2022-08-21T08:48:46;20.30;1.00
573;DHT22;271;51.114;13.780;2022-08-21T08:51:18;20.50;1.00
573;DHT22;271;51.114;13.780;2022-08-21T08:53:51;20.60;1.00
573;DHT22;271;51.114;13.780;2022-08-21T08:56:22;20.70;1.00
573;DHT22;271;51.114;13.780;2022-08-21T08:58:52;20.70;1.00
573;DHT22;271;51.114;13.780;2022-08-21T09:01:20;20.70;1.00
573;DHT22;271;51.114;13.780;2022-08-21T09:03:49;20.70;1.00
573;DHT22;271;51.114;13.780;2022-08-21T09:06:32;20.80;1.00
573;DHT22;271;51.114;13.780;2022-08-21T09:09:11;20.80;1.00
573;DHT22;271;51.114;13.780;2022-08-21T09:11:46;20.90;1.00
573;DHT22;271;51.114;13.780;2022-08-21T09:14:21;20.80;1.00
573;DHT22;271;51.114;13.780;2022-08-21T09:16:54;20.80;1.00
573;DHT22;271;51.114;13.780;2022-08-21T09:19:42;20.90;1.00
573;DHT22;271;51.114;13.780;2022-08-21T09:22:25;20.80;1.00
573;DHT22;271;51.114;13.780;2022-08-21T09:25:02;20.80;1.00
573;DHT22;271;51.114;13.780;2022-08-21T09:27:34;20.70;1.00
573;DHT22;271;51.114;13.780;2022-08-21T09:30:01;20.50;1.00
573;DHT22;271;51.114;13.780;2022-08-21T09:32:29;20.50;1.00
573;DHT22;271;51.114;13.780;2022-08-21T09:35:01;20.50;1.00
573;DHT22;271;51.114;13.780;2022-08-21T09:37:31;20.50;1.00
573;DHT22;271;51.114;13.780;2022-08-21T09:40:00;20.60;1.00
573;DHT22;271;51.114;13.780;2022-08-21T09:42:29;20.60;1.00
573;DHT22;271;51.114;13.780;2022-08-21T09:45:09;20.50;1.00
573;DHT22;271;51.114;13.780;2022-08-21T09:47:36;20.50;1.00
573;DHT22;271;51.114;13.780;2022-08-21T09:50:14;20.40;1.00
573;DHT22;271;51.114;13.780;2022-08-21T09:52:45;20.50;1.00
573;DHT22;271;51.114;13.780;2022-08-21T09:55:17;20.60;1.00
573;DHT22;271;51.114;13.780;2022-08-21T09:57:59;20.60;1.00
573;DHT22;271;51.114;13.780;2022-08-21T10:00:29;20.70;1.00
573;DHT22;271;51.114;13.780;2022-08-21T10:03:09;20.60;1.00
573;DHT22;271;51.114;13.780;2022-08-21T10:05:38;20.50;1.00
573;DHT22;271;51.114;13.780;2022-08-21T10:08:16;20.50;1.00
573;DHT22;271;51.114;13.780;2022-08-21T10:10:43;20.50;1.00
573;DHT22;271;51.114;13.780;2022-08-21T10:13:13;20.50;1.00
573;DHT22;271;51.114;13.780;2022-08-21T10:15:47;20.50;1.00
573;DHT22;271;51.114;13.780;2022-08-21T10:18:22;20.50;1.00
573;DHT22;271;51.114;13.780;2022-08-21T10:20:59;20.50;1.00
573;DHT22;271;51.114;13.780;2022-08-21T10:23:37;20.60;1.00
573;DHT22;271;51.114;13.780;2022-08-21T10:26:14;20.60;1.00
573;DHT22;271;51.114;13.780;2022-08-21T10:28:49;20.60;1.00
573;DHT22;271;51.114;13.780;2022-08-21T10:31:22;20.70;1.00
573;DHT22;271;51.114;13.780;2022-08-21T10:33:59;20.90;1.00
573;DHT22;271;51.114;13.780;2022-08-21T10:36:38;20.90;1.00
573;DHT22;271;51.114;13.780;2022-08-21T10:39:15;20.80;1.00
573;DHT22;271;51.114;13.780;2022-08-21T10:41:57;20.80;1.00
573;DHT22;271;51.114;13.780;2022-08-21T10:44:34;20.90;1.00
573;DHT22;271;51.114;13.780;2022-08-21T10:47:10;21.00;1.00
573;DHT22;271;51.114;13.780;2022-08-21T10:50:00;21.00;1.00
573;DHT22;271;51.114;13.780;2022-08-21T10:52:41;20.90;1.00
573;DHT22;271;51.114;13.780;2022-08-21T10:55:15;20.90;1.00
573;DHT22;271;51.114;13.780;2022-08-21T10:57:47;20.90;1.00
573;DHT22;271;51.114;13.780;2022-08-21T11:00:18;20.90;1.00
573;DHT22;271;51.114;13.780;2022-08-21T11:02:49;20.90;1.00
573;DHT22;271;51.114;13.780;2022-08-21T11:05:24;21.00;1.00
573;DHT22;271;51.114;13.780;2022-08-21T11:07:55;21.00;1.00
573;DHT22;271;51.114;13.780;2022-08-21T11:10:26;20.90;1.00
573;DHT22;271;51.114;13.780;2022-08-21T11:12:56;20.90;1.00
573;DHT22;271;51.114;13.780;2022-08-21T11:15:45;21.00;1.00
573;DHT22;271;51.114;13.780;2022-08-21T11:18:21;21.10;1.00
573;DHT22;271;51.114;13.780;2022-08-21T11:20:54;21.30;1.00
573;DHT22;271;51.114;13.780;2022-08-21T11:23:28;21.40;1.00
573;DHT22;271;51.114;13.780;2022-08-21T11:26:00;21.50;1.00
573;DHT22;271;51.114;13.780;2022-08-21T11:28:32;21.50;1.00
573;DHT22;271;51.114;13.780;2022-08-21T11:31:07;21.60;1.00
573;DHT22;271;51.114;13.780;2022-08-21T11:33:52;21.70;1.00
573;DHT22;271;51.114;13.780;2022-08-21T11:36:30;21.90;1.00
573;DHT22;271;51.114;13.780;2022-08-21T11:39:10;21.90;1.00
573;DHT22;271;51.114;13.780;2022-08-21T11:41:43;22.10;1.00
573;DHT22;271;51.114;13.780;2022-08-21T11:47:06;22.30;1.00
573;DHT22;271;51.114;13.780;2022-08-21T11:49:46;22.30;1.00
573;DHT22;271;51.114;13.780;2022-08-21T11:52:18;22.30;1.00
573;DHT22;271;51.114;13.780;2022-08-21T11:54:49;22.30;1.00
573;DHT22;271;51.114;13.780;2022-08-21T11:57:24;22.30;1.00
573;DHT22;271;51.114;13.780;2022-08-21T11:59:55;22.20;1.00
573;DHT22;271;51.114;13.780;2022-08-21T12:02:29;22.30;1.00
573;DHT22;271;51.114;13.780;2022-08-21T12:05:00;22.30;1.00
573;DHT22;271;51.114;13.780;2022-08-21T12:07:32;22.30;1.00
573;DHT22;271;51.114;13.780;2022-08-21T12:10:02;22.40;1.00
573;DHT22;271;51.114;13.780;2022-08-21T12:12:31;22.50;1.00
573;DHT22;271;51.114;13.780;2022-08-21T12:15:25;22.50;1.00
573;DHT22;271;51.114;13.780;2022-08-21T12:17:56;22.50;1.00
573;DHT22;271;51.114;13.780;2022-08-21T12:20:38;22.60;1.00
573;DHT22;271;51.114;13.780;2022-08-21T12:23:17;22.50;1.00
573;DHT22;271;51.114;13.780;2022-08-21T12:25:47;22.50;1.00
573;DHT22;271;51.114;13.780;2022-08-21T12:28:25;22.50;1.00
573;DHT22;271;51.114;13.780;2022-08-21T12:30:52;22.60;1.00
573;DHT22;271;51.114;13.780;2022-08-21T12:33:23;22.80;1.00
573;DHT22;271;51.114;13.780;2022-08-21T12:35:53;22.80;1.00
573;DHT22;271;51.114;13.780;2022-08-21T12:38:29;22.80;1.00
573;DHT22;271;51.114;13.780;2022-08-21T12:41:01;22.90;1.00
573;DHT22;271;51.114;13.780;2022-08-21T12:43:33;22.80;1.00
573;DHT22;271;51.114;13.780;2022-08-21T12:46:01;22.90;1.00
573;DHT22;271;51.114;13.780;2022-08-21T12:48:34;23.00;1.00
573;DHT22;271;51.114;13.780;2022-08-21T12:51:09;23.00;1.00
573;DHT22;271;51.114;13.780;2022-08-21T12:53:41;23.00;1.00
573;DHT22;271;51.114;13.780;2022-08-21T12:56:14;23.00;1.00
573;DHT22;271;51.114;13.780;2022-08-21T12:58:46;22.90;1.00
573;DHT22;271;51.114;13.780;2022-08-21T13:01:19;22.90;1.00
573;DHT22;271;51.114;13.780;2022-08-21T13:03:50;23.00;1.00
573;DHT22;271;51.114;13.780;2022-08-21T13:06:18;23.10;1.00
573;DHT22;271;51.114;13.780;2022-08-21T13:08:48;23.10;1.00
573;DHT22;271;51.114;13.780;2022-08-21T13:11:20;23.10;1.00
573;DHT22;271;51.114;13.780;2022-08-21T13:13:49;23.20;1.00
573;DHT22;271;51.114;13.780;2022-08-21T13:16:20;23.40;1.00
573;DHT22;271;51.114;13.780;2022-08-21T13:18:58;23.40;1.00
573;DHT22;271;51.114;13.780;2022-08-21T13:21:29;23.30;1.00
573;DHT22;271;51.114;13.780;2022-08-21T13:24:13;23.20;1.00
573;DHT22;271;51.114;13.780;2022-08-21T13:26:42;23.20;1.00
573;DHT22;271;51.114;13.780;2022-08-21T13:29:12;23.20;1.00
573;DHT22;271;51.114;13.780;2022-08-21T13:31:48;23.20;1.00
573;DHT22;271;51.114;13.780;2022-08-21T13:34:15;23.20;1.00
573;DHT22;271;51.114;13.780;2022-08-21T13:36:44;23.00;1.00
573;DHT22;271;51.114;13.780;2022-08-21T13:39:14;23.00;1.00
573;DHT22;271;51.114;13.780;2022-08-21T13:41:46;23.00;1.00
573;DHT22;271;51.114;13.780;2022-08-21T13:44:16;22.80;1.00
573;DHT22;271;51.114;13.780;2022-08-21T13:46:44;22.80;1.00
573;DHT22;271;51.114;13.780;2022-08-21T13:49:14;22.80;1.00
573;DHT22;271;51.114;13.780;2022-08-21T13:51:42;22.80;1.00
573;DHT22;271;51.114;13.780;2022-08-21T13:54:22;22.60;1.00
573;DHT22;271;51.114;13.780;2022-08-21T13:56:51;22.50;1.00
573;DHT22;271;51.114;13.780;2022-08-21T13:59:25;22.40;1.00
573;DHT22;271;51.114;13.780;2022-08-21T14:01:55;22.40;1.00
573;DHT22;271;51.114;13.780;2022-08-21T14:04:29;22.50;1.00
573;DHT22;271;51.114;13.780;2022-08-21T14:06:57;22.50;1.00
573;DHT22;271;51.114;13.780;2022-08-21T14:09:28;22.60;1.00
573;DHT22;271;51.114;13.780;2022-08-21T14:11:59;22.60;1.00
573;DHT22;271;51.114;13.780;2022-08-21T14:14:30;22.70;1.00
573;DHT22;271;51.114;13.780;2022-08-21T14:17:00;22.90;1.00
573;DHT22;271;51.114;13.780;2022-08-21T14:19:34;22.90;1.00
573;DHT22;271;51.114;13.780;2022-08-21T14:22:02;23.00;1.00
573;DHT22;271;51.114;13.780;2022-08-21T14:24:48;23.00;1.00
573;DHT22;271;51.114;13.780;2022-08-21T14:27:18;23.10;1.00
573;DHT22;271;51.114;13.780;2022-08-21T14:29:45;23.20;1.00
573;DHT22;271;51.114;13.780;2022-08-21T14:32:17;23.20;1.00
573;DHT22;271;51.114;13.780;2022-08-21T14:34:46;23.20;1.00
573;DHT22;271;51.114;13.780;2022-08-21T14:37:13;23.30;1.00
573;DHT22;271;51.114;13.780;2022-08-21T14:39:40;23.30;1.00
573;DHT22;271;51.114;13.780;2022-08-21T14:42:07;23.30;1.00
573;DHT22;271;51.114;13.780;2022-08-21T14:44:36;23.20;1.00
573;DHT22;271;51.114;13.780;2022-08-21T14:47:03;23.30;1.00
573;DHT22;271;51.114;13.780;2022-08-21T14:49:31;23.20;1.00
573;DHT22;271;51.114;13.780;2022-08-21T14:51:58;23.10;1.00
573;DHT22;271;51.114;13.780;2022-08-21T14:54:26;23.10;1.00
573;DHT22;271;51.114;13.780;2022-08-21T14:56:53;23.10;1.00
573;DHT22;271;51.114;13.780;2022-08-21T14:59:21;23.10;1.00
573;DHT22;271;51.114;13.780;2022-08-21T15:01:50;23.10;1.00
573;DHT22;271;51.114;13.780;2022-08-21T15:04:17;23.00;1.00
573;DHT22;271;51.114;13.780;2022-08-21T15:06:44;23.00;1.00
573;DHT22;271;51.114;13.780;2022-08-21T15:09:11;22.90;1.00
573;DHT22;271;51.114;13.780;2022-08-21T15:11:38;23.00;1.00
573;DHT22;271;51.114;13.780;2022-08-21T15:14:07;23.00;1.00
573;DHT22;271;51.114;13.780;2022-08-21T15:16:35;23.00;1.00
573;DHT22;271;51.114;13.780;2022-08-21T15:19:04;23.00;1.00
573;DHT22;271;51.114;13.780;2022-08-21T15:21:31;23.00;1.00
573;DHT22;271;51.114;13.780;2022-08-21T15:23:57;23.00;1.00
573;DHT22;271;51.114;13.780;2022-08-21T15:26:24;23.10;1.00
573;DHT22;271;51.114;13.780;2022-08-21T15:28:51;23.10;1.00
573;DHT22;271;51.114;13.780;2022-08-21T15:31:18;23.00;1.00
573;DHT22;271;51.114;13.780;2022-08-21T15:33:45;23.00;1.00
573;DHT22;271;51.114;13.780;2022-08-21T15:36:13;23.00;1.00
573;DHT22;271;51.114;13.780;2022-08-21T15:38:40;23.00;1.00
573;DHT22;271;51.114;13.780;2022-08-21T15:41:08;23.10;1.00
573;DHT22;271;51.114;13.780;2022-08-21T15:43:40;23.00;1.00
573;DHT22;271;51.114;13.780;2022-08-21T15:46:09;22.90;1.00
573;DHT22;271;51.114;13.780;2022-08-21T15:48:37;22.90;1.00
573;DHT22;271;51.114;13.780;2022-08-21T15:51:04;22.80;1.00
573;DHT22;271;51.114;13.780;2022-08-21T15:53:32;22.80;1.00
573;DHT22;271;51.114;13.780;2022-08-21T15:56:04;22.70;1.00
573;DHT22;271;51.114;13.780;2022-08-21T15:58:31;22.60;1.00
573;DHT22;271;51.114;13.780;2022-08-21T16:00:59;22.50;1.00
573;DHT22;271;51.114;13.780;2022-08-21T16:03:26;22.60;1.00
573;DHT22;271;51.114;13.780;2022-08-21T16:05:53;22.50;1.00
573;DHT22;271;51.114;13.780;2022-08-21T16:08:22;22.60;1.00
573;DHT22;271;51.114;13.780;2022-08-21T16:10:51;22.50;1.00
573;DHT22;271;51.114;13.780;2022-08-21T16:13:24;22.40;1.00
573;DHT22;271;51.114;13.780;2022-08-21T16:15:52;22.30;1.00
573;DHT22;271;51.114;13.780;2022-08-21T16:18:20;22.20;1.00
573;DHT22;271;51.114;13.780;2022-08-21T16:20:48;22.10;1.00
573;DHT22;271;51.114;13.780;2022-08-21T16:23:14;22.00;1.00
573;DHT22;271;51.114;13.780;2022-08-21T16:25:41;22.00;1.00
573;DHT22;271;51.114;13.780;2022-08-21T16:28:13;21.90;1.00
573;DHT22;271;51.114;13.780;2022-08-21T16:30:40;21.90;1.00
573;DHT22;271;51.114;13.780;2022-08-21T16:33:17;21.80;1.00
573;DHT22;271;51.114;13.780;2022-08-21T16:35:46;21.60;1.00
573;DHT22;271;51.114;13.780;2022-08-21T16:38:13;21.60;1.00
573;DHT22;271;51.114;13.780;2022-08-21T16:40:39;21.50;1.00
573;DHT22;271;51.114;13.780;2022-08-21T16:43:06;21.40;1.00
573;DHT22;271;51.114;13.780;2022-08-21T16:45:35;21.30;1.00